createdAt,value
2019-03-27T00:00:45.865Z,21.60
2019-03-27T00:03:25.795Z,25.13
2019-03-27T00:05:57.976Z,24.13
2019-03-27T00:08:29.167Z,19.53
2019-03-27T00:11:03.801Z,21.87
2019-03-27T00:13:41.844Z,18.40
2019-03-27T00:16:17.101Z,22.23
2019-03-27T00:18:48.231Z,26.37
2019-03-27T00:21:26.486Z,21.10
2019-03-27T00:23:57.736Z,18.90
2019-03-27T00:26:32.904Z,20.40
2019-03-27T00:29:04.141Z,26.47
2019-03-27T00:31:39.613Z,21.13
2019-03-27T00:34:16.689Z,32.47
2019-03-27T00:36:49.994Z,23.40
2019-03-27T00:39:23.040Z,24.40
2019-03-27T00:41:54.318Z,20.53
2019-03-27T00:44:25.442Z,25.90
2019-03-27T00:46:56.560Z,26.83
2019-03-27T00:49:27.751Z,25.40
2019-03-27T00:51:58.890Z,25.67
2019-03-27T00:54:33.071Z,29.13
2019-03-27T00:57:04.337Z,21.73
2019-03-27T00:59:35.387Z,22.73
2019-03-27T01:02:06.572Z,29.43
2019-03-27T01:04:37.697Z,21.00
2019-03-27T01:07:10.912Z,29.60
2019-03-27T01:09:42.073Z,26.50
2019-03-27T01:12:13.301Z,27.30
2019-03-27T01:14:44.415Z,24.43
2019-03-27T01:17:15.554Z,26.17
2019-03-27T01:19:58.274Z,38.10
2019-03-27T01:22:29.431Z,30.10
2019-03-27T01:25:01.633Z,32.83
2019-03-27T01:27:49.730Z,27.73
2019-03-27T01:30:30.645Z,30.03
2019-03-27T01:33:13.658Z,24.90
2019-03-27T01:35:44.912Z,27.83
2019-03-27T01:38:20.924Z,24.30
2019-03-27T01:40:55.216Z,28.77
2019-03-27T01:43:26.515Z,33.03
2019-03-27T01:46:09.128Z,28.47
2019-03-27T01:48:40.312Z,31.47
2019-03-27T01:51:11.410Z,33.60
2019-03-27T01:53:42.459Z,34.13
2019-03-27T01:56:13.867Z,35.60
2019-03-27T01:58:45.034Z,32.13
2019-03-27T02:01:21.274Z,28.70
2019-03-27T02:03:52.457Z,31.53
2019-03-27T02:06:29.918Z,29.20
2019-03-27T02:09:01.072Z,33.37
2019-03-27T02:11:32.595Z,30.00
2019-03-27T02:14:03.830Z,33.33
2019-03-27T02:16:34.946Z,39.30
2019-03-27T02:19:06.083Z,31.97
2019-03-27T02:21:37.300Z,34.40
2019-03-27T02:24:08.413Z,32.00
2019-03-27T02:26:39.606Z,30.07
2019-03-27T02:29:24.144Z,33.03
2019-03-27T02:31:55.376Z,26.10
2019-03-27T02:34:26.412Z,29.53
2019-03-27T02:37:06.858Z,23.60
2019-03-27T02:39:38.026Z,27.93
2019-03-27T02:42:16.271Z,31.87
2019-03-27T02:44:47.489Z,28.43
2019-03-27T02:47:19.904Z,28.77
2019-03-27T02:49:55.371Z,29.93
2019-03-27T02:52:26.516Z,30.90
2019-03-27T02:54:59.724Z,28.67
2019-03-27T02:57:31.025Z,34.20
2019-03-27T03:00:02.309Z,31.27
2019-03-27T03:02:33.872Z,28.70
2019-03-27T03:05:06.165Z,32.73
2019-03-27T03:07:37.624Z,30.13
2019-03-27T03:10:10.379Z,37.00
2019-03-27T03:12:41.471Z,30.50
2019-03-27T03:15:14.514Z,34.57
2019-03-27T03:17:45.633Z,38.57
2019-03-27T03:20:16.786Z,41.17
2019-03-27T03:22:47.994Z,38.00
2019-03-27T03:25:19.114Z,39.43
2019-03-27T03:27:50.270Z,39.93
2019-03-27T03:30:26.951Z,43.03
2019-03-27T03:32:58.066Z,38.10
2019-03-27T03:35:29.222Z,40.07
2019-03-27T03:38:11.326Z,37.13
2019-03-27T03:40:42.524Z,38.33
2019-03-27T03:43:13.648Z,34.53
2019-03-27T03:45:50.115Z,38.97
2019-03-27T03:48:21.261Z,35.27
2019-03-27T03:51:04.439Z,39.00
2019-03-27T03:53:47.425Z,37.27
2019-03-27T03:56:19.016Z,33.37
2019-03-27T03:58:51.357Z,42.77
2019-03-27T04:01:23.630Z,46.40
2019-03-27T04:03:56.763Z,38.57
2019-03-27T04:06:27.897Z,33.33
2019-03-27T04:08:59.063Z,33.90
2019-03-27T04:11:30.202Z,39.93
2019-03-27T04:14:01.348Z,38.83
2019-03-27T04:16:32.442Z,32.83
2019-03-27T04:19:04.635Z,36.33
2019-03-27T04:21:35.897Z,37.37
2019-03-27T04:24:13.893Z,34.43
2019-03-27T04:26:50.123Z,40.43
2019-03-27T04:29:21.253Z,40.97
2019-03-27T04:31:52.714Z,40.37
2019-03-27T04:34:23.882Z,38.53
2019-03-27T04:37:00.014Z,35.23
2019-03-27T04:39:31.060Z,38.20
2019-03-27T04:42:02.350Z,40.87
2019-03-27T04:44:33.500Z,39.50
2019-03-27T04:47:04.763Z,42.40
2019-03-27T04:49:35.917Z,46.07
2019-03-27T04:52:07.207Z,41.17
2019-03-27T04:54:38.357Z,46.20
2019-03-27T04:57:10.579Z,37.87
2019-03-27T04:59:42.810Z,33.03
2019-03-27T05:02:21.368Z,41.40
2019-03-27T05:04:52.921Z,43.03
2019-03-27T05:07:24.322Z,47.67
2019-03-27T05:09:56.469Z,38.67
2019-03-27T05:12:27.628Z,34.63
2019-03-27T05:15:13.068Z,34.63
2019-03-27T05:17:46.316Z,38.90
2019-03-27T05:20:22.767Z,35.83
2019-03-27T05:22:54.953Z,36.00
2019-03-27T05:25:32.563Z,42.10
2019-03-27T05:28:03.841Z,37.20
2019-03-27T05:30:37.063Z,40.63
2019-03-27T05:33:08.217Z,43.13
2019-03-27T05:35:41.823Z,40.57
2019-03-27T05:38:14.061Z,39.40
2019-03-27T05:40:45.169Z,37.90
2019-03-27T05:43:16.292Z,36.80
2019-03-27T05:46:06.194Z,39.93
2019-03-27T05:48:37.334Z,40.67
2019-03-27T05:51:08.535Z,42.30
2019-03-27T05:53:52.891Z,48.87
2019-03-27T05:56:26.104Z,39.57
2019-03-27T05:59:00.285Z,41.23
2019-03-27T06:01:31.622Z,43.67
2019-03-27T06:04:03.813Z,35.30
2019-03-27T06:06:35.176Z,37.60
2019-03-27T06:09:07.360Z,48.90
2019-03-27T06:11:42.871Z,39.20
2019-03-27T06:14:16.055Z,46.33
2019-03-27T06:16:47.307Z,44.40
2019-03-27T06:19:21.463Z,41.27
2019-03-27T06:22:00.168Z,40.00
2019-03-27T06:24:33.401Z,43.70
2019-03-27T06:27:04.684Z,43.63
2019-03-27T06:29:35.955Z,33.67
2019-03-27T06:32:07.208Z,35.53
2019-03-27T06:34:38.411Z,35.20
2019-03-27T06:37:09.492Z,43.33
2019-03-27T06:39:42.686Z,39.80
2019-03-27T06:42:19.799Z,40.63
2019-03-27T06:44:50.974Z,41.53
2019-03-27T06:47:25.782Z,44.20
2019-03-27T06:49:57.011Z,46.13
2019-03-27T06:52:28.317Z,43.90
2019-03-27T06:54:59.325Z,39.83
2019-03-27T06:57:37.550Z,39.77
2019-03-27T07:00:09.687Z,48.60
2019-03-27T07:02:40.958Z,43.87
2019-03-27T07:05:12.379Z,48.17
2019-03-27T07:07:43.589Z,46.23
2019-03-27T07:10:24.029Z,42.13
2019-03-27T07:12:58.645Z,41.23
2019-03-27T07:15:29.867Z,43.47
2019-03-27T07:18:01.091Z,43.07
2019-03-27T07:20:32.390Z,40.47
2019-03-27T07:23:03.552Z,41.67
2019-03-27T07:25:37.867Z,49.90
2019-03-27T07:28:14.457Z,44.87
2019-03-27T07:30:46.643Z,46.93
2019-03-27T07:33:18.891Z,49.87
2019-03-27T07:35:55.944Z,52.80
2019-03-27T07:38:27.336Z,43.43
2019-03-27T07:40:59.592Z,46.87
2019-03-27T07:43:31.712Z,40.63
2019-03-27T07:46:03.909Z,38.67
2019-03-27T07:48:35.153Z,41.77
2019-03-27T07:51:09.462Z,45.63
2019-03-27T07:53:41.813Z,41.20
2019-03-27T07:56:13.177Z,40.00
2019-03-27T07:58:44.342Z,45.37
2019-03-27T08:01:16.488Z,44.80
2019-03-27T08:03:47.684Z,51.60
2019-03-27T08:06:19.799Z,47.50
2019-03-27T08:08:51.005Z,48.33
2019-03-27T08:11:32.625Z,46.90
2019-03-27T08:14:03.903Z,43.90
2019-03-27T08:16:35.104Z,47.00
2019-03-27T08:19:07.765Z,45.77
2019-03-27T08:21:51.584Z,48.20
2019-03-27T08:24:24.724Z,50.97
2019-03-27T08:26:55.848Z,50.47
2019-03-27T08:29:28.105Z,46.77
2019-03-27T08:31:59.325Z,42.93
2019-03-27T08:34:32.458Z,44.60
2019-03-27T08:37:03.707Z,46.53
2019-03-27T08:39:34.932Z,50.07
2019-03-27T08:42:08.050Z,50.77
2019-03-27T08:44:40.298Z,44.03
2019-03-27T08:47:11.440Z,49.73
2019-03-27T08:49:42.690Z,54.63
2019-03-27T08:52:14.153Z,47.17
2019-03-27T08:54:45.495Z,39.00
2019-03-27T08:57:17.811Z,36.57
2019-03-27T08:59:54.483Z,37.73
2019-03-27T09:02:34.434Z,31.37
2019-03-27T09:05:06.362Z,32.00
2019-03-27T09:07:37.603Z,32.30
2019-03-27T09:10:09.275Z,37.33
2019-03-27T09:13:11.220Z,40.00
2019-03-27T09:15:42.683Z,40.07
2019-03-27T09:18:17.144Z,49.47
2019-03-27T09:20:48.424Z,33.00
2019-03-27T09:23:19.909Z,28.53
2019-03-27T09:25:51.826Z,27.30
2019-03-27T09:28:23.173Z,29.10
2019-03-27T09:30:54.984Z,24.17
2019-03-27T09:33:26.356Z,22.87
2019-03-27T09:35:57.810Z,21.37
2019-03-27T09:38:29.140Z,23.20
2019-03-27T09:41:00.598Z,19.77
2019-03-27T09:43:31.954Z,15.30
2019-03-27T09:46:05.069Z,13.97
2019-03-27T09:48:36.355Z,15.77
2019-03-27T09:51:07.793Z,17.77
2019-03-27T09:53:39.532Z,14.77
2019-03-27T09:56:19.033Z,16.70
2019-03-27T09:58:44.913Z,16.60
2019-03-27T10:01:25.827Z,17.10
2019-03-27T10:03:59.153Z,15.40
2019-03-27T10:06:41.935Z,18.50
2019-03-27T10:09:24.433Z,10.70
2019-03-27T10:12:02.250Z,12.83
2019-03-27T10:14:33.491Z,13.87
2019-03-27T10:17:15.251Z,13.67
2019-03-27T10:20:02.904Z,14.73
2019-03-27T10:22:26.674Z,17.93
2019-03-27T10:25:08.613Z,19.03
2019-03-27T10:27:48.851Z,15.03
2019-03-27T10:30:21.141Z,16.27
2019-03-27T10:32:58.215Z,17.07
2019-03-27T10:35:29.470Z,15.90
2019-03-27T10:38:08.773Z,11.27
2019-03-27T10:40:40.011Z,9.60
2019-03-27T10:43:11.292Z,8.67
2019-03-27T10:45:48.305Z,9.63
2019-03-27T10:48:19.503Z,16.97
2019-03-27T10:50:56.921Z,19.13
2019-03-27T10:53:30.068Z,13.30
2019-03-27T10:56:12.152Z,17.20
2019-03-27T10:58:49.463Z,14.47
2019-03-27T11:01:20.650Z,17.33
2019-03-27T11:03:52.808Z,17.43
2019-03-27T11:06:33.095Z,16.03
2019-03-27T11:09:07.191Z,11.17
2019-03-27T11:11:38.695Z,11.07
2019-03-27T11:14:09.832Z,10.77
2019-03-27T11:16:45.131Z,10.63
2019-03-27T11:19:33.433Z,13.80
2019-03-27T11:22:04.054Z,17.23
2019-03-27T11:24:35.222Z,15.37
2019-03-27T11:27:06.980Z,15.13
2019-03-27T11:29:44.395Z,14.23
2019-03-27T11:32:27.067Z,15.50
2019-03-27T11:34:58.321Z,13.87
2019-03-27T11:37:32.636Z,13.17
2019-03-27T11:40:04.387Z,16.80
2019-03-27T11:42:35.636Z,15.50
2019-03-27T11:45:07.321Z,17.63
2019-03-27T11:47:38.476Z,17.53
2019-03-27T11:50:13.107Z,16.03
2019-03-27T11:52:56.559Z,14.80
2019-03-27T11:55:27.759Z,10.43
2019-03-27T11:57:59.202Z,10.53
2019-03-27T12:00:30.453Z,12.00
2019-03-27T12:03:01.620Z,11.17
2019-03-27T12:05:32.749Z,28.17
2019-03-27T12:08:05.104Z,11.23
2019-03-27T12:10:45.405Z,9.73
2019-03-27T12:13:16.631Z,13.20
2019-03-27T12:16:07.185Z,13.57
2019-03-27T12:18:38.306Z,13.50
2019-03-27T12:21:09.420Z,12.57
2019-03-27T12:23:40.458Z,13.43
2019-03-27T12:26:11.579Z,11.70
2019-03-27T12:28:42.819Z,7.43
2019-03-27T12:31:13.959Z,11.43
2019-03-27T12:33:46.042Z,9.30
2019-03-27T12:36:17.278Z,11.93
2019-03-27T12:38:48.433Z,11.47
2019-03-27T12:41:25.613Z,11.67
2019-03-27T12:43:56.672Z,8.63
2019-03-27T12:46:27.820Z,11.83
2019-03-27T12:48:59.052Z,10.63
2019-03-27T12:51:30.203Z,12.67
2019-03-27T12:54:12.672Z,9.00
2019-03-27T12:56:49.643Z,9.53
2019-03-27T12:59:20.884Z,8.83
2019-03-27T13:01:53.178Z,7.27
2019-03-27T13:04:24.320Z,8.90
2019-03-27T13:06:55.566Z,8.00
2019-03-27T13:09:26.992Z,8.70
2019-03-27T13:12:00.467Z,10.33
2019-03-27T13:14:33.610Z,11.30
2019-03-27T13:17:04.827Z,9.60
2019-03-27T13:19:42.887Z,10.17
2019-03-27T13:22:20.720Z,15.43
2019-03-27T13:24:51.915Z,9.77
2019-03-27T13:27:23.103Z,8.67
2019-03-27T13:29:57.470Z,8.90
2019-03-27T13:32:28.649Z,9.97
2019-03-27T13:35:06.870Z,12.17
2019-03-27T13:37:43.324Z,11.33
2019-03-27T13:40:30.831Z,9.73
2019-03-27T13:43:02.072Z,9.33
2019-03-27T13:45:35.185Z,10.67
2019-03-27T13:48:10.438Z,9.30
2019-03-27T13:50:45.682Z,11.20
2019-03-27T13:53:17.980Z,6.53
2019-03-27T13:55:49.178Z,8.13
2019-03-27T13:58:23.796Z,9.60
2019-03-27T14:00:55.057Z,14.27
2019-03-27T14:03:27.381Z,13.67
2019-03-27T14:05:58.560Z,9.03
2019-03-27T14:08:33.075Z,7.73
2019-03-27T14:11:04.352Z,9.73
2019-03-27T14:13:43.674Z,7.17
2019-03-27T14:16:14.891Z,8.57
2019-03-27T14:18:48.787Z,10.23
2019-03-27T14:21:24.909Z,8.60
2019-03-27T14:23:57.057Z,7.37
2019-03-27T14:26:44.047Z,13.00
2019-03-27T14:29:09.938Z,6.80
2019-03-27T14:31:41.233Z,10.03
2019-03-27T14:34:23.765Z,7.87
2019-03-27T14:37:00.048Z,9.23
2019-03-27T14:39:31.321Z,12.43
2019-03-27T14:42:09.758Z,12.60
2019-03-27T14:44:40.897Z,7.23
2019-03-27T14:47:12.081Z,8.70
2019-03-27T14:49:49.967Z,10.13
2019-03-27T14:52:26.371Z,9.77
2019-03-27T14:55:02.912Z,9.20
2019-03-27T14:57:38.169Z,9.93
2019-03-27T15:00:10.190Z,15.40
2019-03-27T15:02:52.656Z,12.07
2019-03-27T15:05:23.930Z,11.13
2019-03-27T15:08:00.128Z,16.63
2019-03-27T15:10:42.483Z,10.83
2019-03-27T15:13:15.347Z,13.10
2019-03-27T15:15:50.990Z,12.13
2019-03-27T15:18:22.198Z,11.53
2019-03-27T15:20:59.769Z,10.30
2019-03-27T15:23:34.813Z,10.27
2019-03-27T15:26:11.148Z,12.30
2019-03-27T15:28:42.437Z,10.37
2019-03-27T15:31:20.304Z,11.87
2019-03-27T15:33:46.507Z,8.53
2019-03-27T15:36:18.704Z,8.67
2019-03-27T15:38:49.816Z,9.53
2019-03-27T15:41:21.992Z,10.50
2019-03-27T15:44:05.659Z,9.90
2019-03-27T15:46:42.244Z,10.90
2019-03-27T15:49:13.367Z,10.43
2019-03-27T15:51:50.575Z,6.93
2019-03-27T15:54:25.621Z,9.03
2019-03-27T15:56:56.706Z,10.07
2019-03-27T15:59:27.896Z,11.30
2019-03-27T16:02:01.139Z,8.00
2019-03-27T16:04:32.408Z,11.37
2019-03-27T16:07:26.783Z,14.30
2019-03-27T16:09:58.103Z,12.40
2019-03-27T16:12:36.122Z,9.53
2019-03-27T16:15:11.087Z,9.73
2019-03-27T16:17:42.416Z,9.27
2019-03-27T16:20:13.657Z,10.87
2019-03-27T16:22:50.962Z,8.30
2019-03-27T16:25:19.087Z,11.67
2019-03-27T16:27:59.309Z,9.40
2019-03-27T16:30:30.662Z,14.37
2019-03-27T16:33:10.025Z,13.40
2019-03-27T16:35:50.972Z,16.87
2019-03-27T16:38:22.203Z,15.23
2019-03-27T16:40:53.383Z,10.37
2019-03-27T16:43:26.715Z,9.67
2019-03-27T16:45:59.988Z,10.40
2019-03-27T16:48:33.418Z,9.13
2019-03-27T16:51:04.854Z,9.60
2019-03-27T16:53:54.227Z,11.87
2019-03-27T16:56:25.961Z,8.77
2019-03-27T16:59:06.319Z,11.10
2019-03-27T17:01:37.616Z,12.03
2019-03-27T17:04:08.956Z,8.03
2019-03-27T17:06:40.093Z,9.17
2019-03-27T17:09:11.415Z,13.23
2019-03-27T17:11:43.684Z,9.80
2019-03-27T17:14:26.824Z,10.10
2019-03-27T17:16:58.155Z,10.07
2019-03-27T17:19:30.434Z,11.53
2019-03-27T17:22:18.539Z,15.23
2019-03-27T17:24:56.069Z,11.63
2019-03-27T17:27:26.714Z,10.47
2019-03-27T17:29:58.068Z,9.87
2019-03-27T17:32:31.392Z,11.27
2019-03-27T17:35:02.684Z,15.10
2019-03-27T17:37:34.888Z,12.53
2019-03-27T17:40:07.474Z,11.20
2019-03-27T17:42:38.695Z,10.70
2019-03-27T17:45:18.164Z,10.80
2019-03-27T17:47:49.451Z,10.33
2019-03-27T17:50:22.739Z,10.73
2019-03-27T17:52:53.993Z,11.03
2019-03-27T17:55:25.333Z,14.10
2019-03-27T17:57:57.643Z,12.27
2019-03-27T18:00:51.044Z,11.73
2019-03-27T18:03:22.569Z,12.30
2019-03-27T18:06:09.217Z,16.83
2019-03-27T18:08:40.543Z,11.77
2019-03-27T18:11:19.160Z,15.03
2019-03-27T18:13:53.490Z,9.87
2019-03-27T18:16:24.897Z,11.80
2019-03-27T18:18:58.410Z,12.90
2019-03-27T18:21:29.616Z,14.30
2019-03-27T18:24:01.922Z,14.63
2019-03-27T18:26:33.618Z,11.57
2019-03-27T18:29:05.216Z,14.37
2019-03-27T18:31:41.537Z,14.43
2019-03-27T18:34:17.766Z,12.57
2019-03-27T18:36:58.089Z,12.07
2019-03-27T18:39:29.237Z,14.70
2019-03-27T18:42:01.453Z,17.87
2019-03-27T18:44:34.687Z,13.50
2019-03-27T18:47:05.887Z,15.87
2019-03-27T18:49:39.177Z,12.80
2019-03-27T18:52:10.395Z,13.73
2019-03-27T18:54:41.604Z,14.10
2019-03-27T18:57:12.838Z,14.57
2019-03-27T18:59:53.222Z,14.93
2019-03-27T19:02:25.417Z,13.30
2019-03-27T19:04:57.662Z,17.70
2019-03-27T19:07:28.917Z,14.33
2019-03-27T19:10:04.150Z,12.97
2019-03-27T19:12:35.742Z,12.93
2019-03-27T19:15:07.240Z,11.87
2019-03-27T19:17:39.688Z,12.93
2019-03-27T19:20:11.025Z,17.23
2019-03-27T19:22:42.361Z,13.03
2019-03-27T19:25:13.719Z,11.97
2019-03-27T19:27:44.982Z,13.60
2019-03-27T19:30:16.533Z,13.43
2019-03-27T19:32:47.888Z,13.33
2019-03-27T19:35:19.441Z,16.57
2019-03-27T19:37:52.746Z,14.13
2019-03-27T19:40:24.059Z,16.97
2019-03-27T19:42:55.308Z,12.77
2019-03-27T19:45:30.780Z,14.37
2019-03-27T19:48:05.369Z,17.60
2019-03-27T19:50:36.772Z,16.87
2019-03-27T19:53:19.083Z,14.03
2019-03-27T19:55:50.569Z,13.53
2019-03-27T19:58:26.082Z,16.57
2019-03-27T20:00:57.393Z,14.00
2019-03-27T20:03:29.508Z,15.00
2019-03-27T20:06:01.606Z,16.80
2019-03-27T20:08:32.882Z,16.13
2019-03-27T20:11:04.238Z,15.33
2019-03-27T20:13:35.446Z,13.40
2019-03-27T20:16:06.718Z,15.13
2019-03-27T20:18:45.720Z,17.00
2019-03-27T20:21:17.111Z,17.93
2019-03-27T20:23:51.599Z,17.57
2019-03-27T20:26:26.578Z,18.57
2019-03-27T20:28:57.738Z,15.97
2019-03-27T20:31:31.012Z,19.63
2019-03-27T20:34:02.559Z,17.83
2019-03-27T20:36:38.893Z,16.33
2019-03-27T20:39:11.260Z,20.10
2019-03-27T20:41:48.655Z,21.63
2019-03-27T20:44:19.807Z,17.00
2019-03-27T20:46:56.220Z,18.03
2019-03-27T20:49:29.449Z,20.40
2019-03-27T20:52:12.506Z,17.87
2019-03-27T20:54:54.459Z,18.20
2019-03-27T20:57:23.099Z,19.23
2019-03-27T20:59:56.803Z,14.07
2019-03-27T21:02:33.706Z,13.37
2019-03-27T21:05:11.396Z,15.83
2019-03-27T21:07:54.506Z,15.10
2019-03-27T21:10:25.703Z,13.73
2019-03-27T21:13:01.243Z,16.07
2019-03-27T21:15:32.585Z,13.80
2019-03-27T21:18:10.374Z,13.73
2019-03-27T21:20:42.510Z,13.47
2019-03-27T21:23:23.756Z,14.20
2019-03-27T21:25:55.004Z,18.07
2019-03-27T21:28:31.343Z,17.33
2019-03-27T21:31:11.577Z,11.87
2019-03-27T21:33:42.900Z,16.10
2019-03-27T21:36:15.206Z,13.83
2019-03-27T21:38:56.186Z,17.57
2019-03-27T21:41:33.382Z,17.90
2019-03-27T21:44:15.277Z,18.27
2019-03-27T21:46:51.071Z,19.90
2019-03-27T21:49:22.423Z,17.80
2019-03-27T21:51:56.692Z,19.03
2019-03-27T21:54:28.044Z,14.37
2019-03-27T21:57:07.054Z,20.03
2019-03-27T21:59:43.803Z,18.47
2019-03-27T22:02:16.201Z,14.43
2019-03-27T22:04:47.909Z,14.57
2019-03-27T22:07:19.543Z,17.10
2019-03-27T22:09:51.738Z,18.30
2019-03-27T22:12:29.161Z,17.00
2019-03-27T22:15:07.788Z,17.43
2019-03-27T22:17:39.059Z,20.57
2019-03-27T22:20:10.424Z,15.83
2019-03-27T22:22:44.275Z,18.17
2019-03-27T22:25:15.955Z,22.07
2019-03-27T22:27:47.385Z,17.87
2019-03-27T22:30:18.758Z,19.63
2019-03-27T22:32:55.184Z,18.00
2019-03-27T22:35:26.811Z,16.37
2019-03-27T22:38:00.209Z,18.70
2019-03-27T22:40:31.505Z,19.07
2019-03-27T22:43:04.885Z,19.13
2019-03-27T22:45:36.541Z,19.40
2019-03-27T22:48:07.833Z,18.57
2019-03-27T22:50:48.506Z,23.70
2019-03-27T22:53:25.473Z,22.47
2019-03-27T22:55:56.878Z,21.80
2019-03-27T22:58:47.285Z,17.67
2019-03-27T23:01:18.515Z,20.83
2019-03-27T23:03:53.306Z,18.77
2019-03-27T23:06:24.593Z,20.53
2019-03-27T23:08:58.643Z,15.50
2019-03-27T23:11:30.134Z,19.77
2019-03-27T23:14:01.303Z,17.87
2019-03-27T23:16:34.756Z,19.80
2019-03-27T23:19:11.812Z,17.90
2019-03-27T23:21:43.294Z,19.20
2019-03-27T23:24:14.695Z,18.00
2019-03-27T23:26:45.985Z,17.90
2019-03-27T23:29:17.704Z,20.13
2019-03-27T23:31:49.145Z,17.90
2019-03-27T23:34:20.847Z,23.43
2019-03-27T23:36:58.132Z,18.20
2019-03-27T23:39:33.545Z,19.87
2019-03-27T23:42:05.462Z,15.80
2019-03-27T23:44:38.950Z,20.27
2019-03-27T23:47:21.939Z,17.03
2019-03-27T23:49:53.113Z,19.67
2019-03-27T23:52:30.178Z,14.63
2019-03-27T23:55:08.333Z,19.80
2019-03-27T23:57:39.645Z,19.03
